createdAt,value
2022-08-24T00:00:50.593Z,0.00
2022-08-24T00:01:50.807Z,0.00
2022-08-24T00:02:51.187Z,0.00
2022-08-24T00:03:55.241Z,0.00
2022-08-24T00:04:51.321Z,0.00
2022-08-24T00:05:51.565Z,0.00
2022-08-24T00:06:51.662Z,0.00
2022-08-24T00:07:51.841Z,0.00
2022-08-24T00:08:52.087Z,0.00
2022-08-24T00:09:52.168Z,0.00
2022-08-24T00:10:52.354Z,0.00
2022-08-24T00:11:52.511Z,0.00
2022-08-24T00:12:52.725Z,0.00
2022-08-24T00:13:52.963Z,0.00
2022-08-24T00:14:53.058Z,0.00
2022-08-24T00:15:53.234Z,0.00
2022-08-24T00:16:53.523Z,0.00
2022-08-24T00:17:53.653Z,0.00
2022-08-24T00:18:53.773Z,0.00
2022-08-24T00:19:53.963Z,0.00
2022-08-24T00:20:54.103Z,0.00
2022-08-24T00:21:54.276Z,0.00
2022-08-24T00:22:54.456Z,0.00
2022-08-24T00:23:54.664Z,0.00
2022-08-24T00:24:54.789Z,0.00
2022-08-24T00:25:55.031Z,0.00
2022-08-24T00:26:55.163Z,0.00
2022-08-24T00:27:55.313Z,0.00
2022-08-24T00:28:55.504Z,0.00
2022-08-24T00:29:55.709Z,0.00
2022-08-24T00:30:55.855Z,0.00
2022-08-24T00:31:56.019Z,0.00
2022-08-24T00:32:56.273Z,0.00
2022-08-24T00:33:56.362Z,0.00
2022-08-24T00:34:58.649Z,0.00
2022-08-24T00:35:56.674Z,0.00
2022-08-24T00:36:56.885Z,0.00
2022-08-24T00:37:57.205Z,0.00
2022-08-24T00:38:57.204Z,0.00
2022-08-24T00:39:57.456Z,0.00
2022-08-24T00:40:57.605Z,0.00
2022-08-24T00:41:57.684Z,0.00
2022-08-24T00:42:57.865Z,0.00
2022-08-24T00:43:58.026Z,0.00
2022-08-24T00:44:58.216Z,0.00
2022-08-24T00:45:58.455Z,0.00
2022-08-24T00:46:58.534Z,0.00
2022-08-24T00:47:58.961Z,0.00
2022-08-24T00:48:58.889Z,0.00
2022-08-24T00:49:59.075Z,0.00
2022-08-24T00:50:59.324Z,0.00
2022-08-24T00:51:59.451Z,0.00
2022-08-24T00:52:59.615Z,0.00
2022-08-24T00:53:59.832Z,0.00
2022-08-24T00:54:59.987Z,0.00
2022-08-24T00:56:00.135Z,0.00
2022-08-24T00:57:00.297Z,0.00
2022-08-24T00:58:00.561Z,0.00
2022-08-24T00:59:00.632Z,0.00
2022-08-24T01:00:00.825Z,0.00
2022-08-24T01:01:01.162Z,0.00
2022-08-24T01:02:05.251Z,0.00
2022-08-24T01:03:02.366Z,0.00
2022-08-24T01:04:01.621Z,0.00
2022-08-24T01:05:01.677Z,0.00
2022-08-24T01:06:01.874Z,0.00
2022-08-24T01:07:02.108Z,0.00
2022-08-24T01:08:02.539Z,0.00
2022-08-24T01:09:02.376Z,0.00
2022-08-24T01:10:02.556Z,0.00
2022-08-24T01:11:02.735Z,0.00
2022-08-24T01:12:02.896Z,0.00
2022-08-24T01:13:03.075Z,0.00
2022-08-24T01:14:03.290Z,0.00
2022-08-24T01:15:03.449Z,0.00
2022-08-24T01:16:03.613Z,0.00
2022-08-24T01:17:03.772Z,0.00
2022-08-24T01:18:04.146Z,0.00
2022-08-24T01:19:04.105Z,0.00
2022-08-24T01:20:04.297Z,0.00
2022-08-24T01:21:04.535Z,0.00
2022-08-24T01:22:04.637Z,0.00
2022-08-24T01:23:04.849Z,0.00
2022-08-24T01:24:05.082Z,0.00
2022-08-24T01:25:05.159Z,0.00
2022-08-24T01:26:05.380Z,0.00
2022-08-24T01:27:05.582Z,0.00
2022-08-24T01:28:05.687Z,0.00
2022-08-24T01:29:05.949Z,0.00
2022-08-24T01:30:06.062Z,0.00
2022-08-24T01:31:06.255Z,0.00
2022-08-24T01:32:06.458Z,0.00
2022-08-24T01:33:06.632Z,0.00
2022-08-24T01:34:06.748Z,0.00
2022-08-24T01:35:06.915Z,0.00
2022-08-24T01:36:07.075Z,0.00
2022-08-24T01:37:07.247Z,0.00
2022-08-24T01:38:07.459Z,0.00
2022-08-24T01:39:07.701Z,0.00
2022-08-24T01:40:07.855Z,0.00
2022-08-24T01:41:07.997Z,0.00
2022-08-24T01:42:08.246Z,0.00
2022-08-24T01:43:08.366Z,0.00
2022-08-24T01:44:08.489Z,0.00
2022-08-24T01:45:08.705Z,0.00
2022-08-24T01:46:08.889Z,0.00
2022-08-24T01:47:09.012Z,0.00
2022-08-24T01:48:09.209Z,0.00
2022-08-24T01:49:09.425Z,0.00
2022-08-24T01:50:09.559Z,0.00
2022-08-24T01:51:09.718Z,0.00
2022-08-24T01:52:09.991Z,0.00
2022-08-24T01:53:10.127Z,0.00
2022-08-24T01:54:10.297Z,0.00
2022-08-24T01:55:10.549Z,0.00
2022-08-24T01:56:10.640Z,0.00
2022-08-24T01:57:10.800Z,0.00
2022-08-24T01:58:10.999Z,0.00
2022-08-24T01:59:11.158Z,0.00
2022-08-24T02:00:11.420Z,0.00
2022-08-24T02:01:11.504Z,0.00
2022-08-24T02:02:11.707Z,0.00
2022-08-24T02:03:11.959Z,0.00
2022-08-24T02:04:12.010Z,0.00
2022-08-24T02:05:13.190Z,0.00
2022-08-24T02:06:12.381Z,0.00
2022-08-24T02:07:12.530Z,0.00
2022-08-24T02:08:12.757Z,0.00
2022-08-24T02:09:12.998Z,0.00
2022-08-24T02:10:13.124Z,0.00
2022-08-24T02:11:13.280Z,0.00
2022-08-24T02:12:13.444Z,0.00
2022-08-24T02:13:13.619Z,0.00
2022-08-24T02:14:14.554Z,0.00
2022-08-24T02:15:13.979Z,0.00
2022-08-24T02:16:14.193Z,0.00
2022-08-24T02:17:14.512Z,0.00
2022-08-24T02:18:15.287Z,0.00
2022-08-24T02:19:14.660Z,0.00
2022-08-24T02:20:14.820Z,0.00
2022-08-24T02:21:15.050Z,0.00
2022-08-24T02:22:15.152Z,0.00
2022-08-24T02:23:15.330Z,0.00
2022-08-24T02:24:15.574Z,0.00
2022-08-24T02:25:15.660Z,0.00
2022-08-24T02:26:15.832Z,0.00
2022-08-24T02:27:16.063Z,0.00
2022-08-24T02:28:16.198Z,0.00
2022-08-24T02:29:16.341Z,0.00
2022-08-24T02:30:16.570Z,0.00
2022-08-24T02:31:16.791Z,0.00
2022-08-24T02:32:16.874Z,0.00
2022-08-24T02:33:17.080Z,0.00
2022-08-24T02:34:17.254Z,0.00
2022-08-24T02:35:17.374Z,0.00
2022-08-24T02:36:26.173Z,0.00
2022-08-24T02:37:18.805Z,0.00
2022-08-24T02:38:17.900Z,0.00
2022-08-24T02:39:18.050Z,0.00
2022-08-24T02:40:18.389Z,0.00
2022-08-24T02:41:18.421Z,0.00
2022-08-24T02:42:18.790Z,0.00
2022-08-24T02:43:18.803Z,0.00
2022-08-24T02:44:18.960Z,0.00
2022-08-24T02:45:19.203Z,0.00
2022-08-24T02:46:19.345Z,0.00
2022-08-24T02:47:19.669Z,0.00
2022-08-24T02:48:19.765Z,0.00
2022-08-24T02:49:19.846Z,0.00
2022-08-24T02:50:19.991Z,0.00
2022-08-24T02:51:20.220Z,0.00
2022-08-24T02:52:20.384Z,0.00
2022-08-24T02:53:20.502Z,0.00
2022-08-24T02:54:20.671Z,0.00
2022-08-24T02:55:20.885Z,0.00
2022-08-24T02:56:21.002Z,0.00
2022-08-24T02:57:21.171Z,0.00
2022-08-24T02:58:21.421Z,0.00
2022-08-24T02:59:21.499Z,0.00
2022-08-24T03:00:21.663Z,0.00
2022-08-24T03:01:24.169Z,0.00
2022-08-24T03:02:23.256Z,0.00
2022-08-24T03:03:22.182Z,0.00
2022-08-24T03:04:22.434Z,0.00
2022-08-24T03:05:22.520Z,0.00
2022-08-24T03:06:22.673Z,0.00
2022-08-24T03:07:22.878Z,0.00
2022-08-24T03:08:23.065Z,0.00
2022-08-24T03:09:23.538Z,0.00
2022-08-24T03:10:23.352Z,0.00
2022-08-24T03:11:27.411Z,0.00
2022-08-24T03:12:23.702Z,0.00
2022-08-24T03:13:23.874Z,0.00
2022-08-24T03:14:24.115Z,0.00
2022-08-24T03:15:24.183Z,0.00
2022-08-24T03:16:24.384Z,0.00
2022-08-24T03:17:24.645Z,0.00
2022-08-24T03:18:24.913Z,0.00
2022-08-24T03:19:24.912Z,0.00
2022-08-24T03:20:25.180Z,0.00
2022-08-24T03:21:25.267Z,0.00
2022-08-24T03:22:25.440Z,0.00
2022-08-24T03:23:25.711Z,0.00
2022-08-24T03:24:25.824Z,0.00
2022-08-24T03:25:25.943Z,0.00
2022-08-24T03:26:26.146Z,0.00
2022-08-24T03:27:26.330Z,0.00
2022-08-24T03:28:26.473Z,0.00
2022-08-24T03:29:26.652Z,0.00
2022-08-24T03:30:26.970Z,0.00
2022-08-24T03:31:26.983Z,0.00
2022-08-24T03:32:27.153Z,0.00
2022-08-24T03:33:27.450Z,0.00
2022-08-24T03:34:27.504Z,0.00
2022-08-24T03:35:27.674Z,4.00
2022-08-24T03:36:27.845Z,4.00
2022-08-24T03:37:28.014Z,4.00
2022-08-24T03:38:28.309Z,4.00
2022-08-24T03:39:28.357Z,4.00
2022-08-24T03:40:28.603Z,8.00
2022-08-24T03:41:28.777Z,4.00
2022-08-24T03:42:28.882Z,4.00
2022-08-24T03:43:29.073Z,4.00
2022-08-24T03:44:29.248Z,8.00
2022-08-24T03:45:29.436Z,12.00
2022-08-24T03:46:29.584Z,12.00
2022-08-24T03:47:29.744Z,12.00
2022-08-24T03:48:29.954Z,16.00
2022-08-24T03:49:30.105Z,16.00
2022-08-24T03:50:30.356Z,20.00
2022-08-24T03:51:30.455Z,28.00
2022-08-24T03:52:33.892Z,28.00
2022-08-24T03:53:30.907Z,32.00
2022-08-24T03:54:30.955Z,36.00
2022-08-24T03:55:31.136Z,40.00
2022-08-24T03:56:31.417Z,48.00
2022-08-24T03:57:31.514Z,52.00
2022-08-24T03:58:31.720Z,60.00
2022-08-24T03:59:31.978Z,64.00
2022-08-24T04:00:32.062Z,68.00
2022-08-24T04:01:32.282Z,76.00
2022-08-24T04:02:33.110Z,80.00
2022-08-24T04:03:32.655Z,92.00
2022-08-24T04:04:32.726Z,108.00
2022-08-24T04:05:35.058Z,124.00
2022-08-24T04:06:33.087Z,140.00
2022-08-24T04:07:33.288Z,156.00
2022-08-24T04:08:33.538Z,172.00
2022-08-24T04:09:33.607Z,188.00
2022-08-24T04:10:33.775Z,208.00
2022-08-24T04:11:34.754Z,232.00
2022-08-24T04:12:34.116Z,252.00
2022-08-24T04:13:34.366Z,280.00
2022-08-24T04:14:34.436Z,300.00
2022-08-24T04:15:34.624Z,320.00
2022-08-24T04:16:34.935Z,340.00
2022-08-24T04:17:34.978Z,360.00
2022-08-24T04:18:35.187Z,380.00
2022-08-24T04:19:35.439Z,412.00
2022-08-24T04:20:35.537Z,436.00
2022-08-24T04:21:35.839Z,460.00
2022-08-24T04:22:35.889Z,480.00
2022-08-24T04:23:47.713Z,504.00
2022-08-24T04:24:37.217Z,528.00
2022-08-24T04:25:36.377Z,540.00
2022-08-24T04:26:44.822Z,564.00
2022-08-24T04:27:37.738Z,596.00
2022-08-24T04:28:36.934Z,620.00
2022-08-24T04:29:37.068Z,652.00
2022-08-24T04:30:37.341Z,696.00
2022-08-24T04:31:37.472Z,748.00
2022-08-24T04:32:37.593Z,784.00
2022-08-24T04:33:37.821Z,844.00
2022-08-24T04:34:37.937Z,844.00
2022-08-24T04:35:38.179Z,868.00
2022-08-24T04:36:38.361Z,912.00
2022-08-24T04:37:38.478Z,940.00
2022-08-24T04:38:38.704Z,968.00
2022-08-24T04:39:38.884Z,1016.00
2022-08-24T04:40:39.019Z,1076.00
2022-08-24T04:41:39.188Z,1152.00
2022-08-24T04:42:39.460Z,1292.00
2022-08-24T04:43:39.588Z,1392.00
2022-08-24T04:44:39.788Z,1380.00
2022-08-24T04:45:39.932Z,1404.00
2022-08-24T04:46:40.171Z,1496.00
2022-08-24T04:47:40.280Z,1484.00
2022-08-24T04:48:40.522Z,1456.00
2022-08-24T04:49:40.640Z,1476.00
2022-08-24T04:50:40.849Z,1532.00
2022-08-24T04:51:41.010Z,1596.00
2022-08-24T04:52:41.209Z,1644.00
2022-08-24T04:53:41.435Z,1692.00
2022-08-24T04:54:41.539Z,1848.00
2022-08-24T04:55:41.793Z,1968.00
2022-08-24T04:56:41.900Z,1916.00
2022-08-24T04:57:42.120Z,1960.00
2022-08-24T04:58:42.328Z,2044.00
2022-08-24T04:59:42.422Z,2076.00
2022-08-24T05:00:42.705Z,2056.00
2022-08-24T05:01:42.833Z,2160.00
2022-08-24T05:02:45.041Z,2364.00
2022-08-24T05:03:43.169Z,2428.00
2022-08-24T05:04:43.289Z,2388.00
2022-08-24T05:05:43.471Z,2348.00
2022-08-24T05:06:43.660Z,2484.00
2022-08-24T05:07:43.870Z,2544.00
2022-08-24T05:08:44.012Z,2604.00
2022-08-24T05:09:44.204Z,2748.00
2022-08-24T05:10:44.427Z,2760.00
2022-08-24T05:11:49.685Z,2796.00
2022-08-24T05:12:45.721Z,2908.00
2022-08-24T05:13:44.965Z,2932.00
2022-08-24T05:14:45.063Z,2840.00
2022-08-24T05:15:45.253Z,2784.00
2022-08-24T05:16:45.857Z,2776.00
2022-08-24T05:17:46.780Z,2748.00
2022-08-24T05:18:45.752Z,2684.00
2022-08-24T05:19:46.017Z,2528.00
2022-08-24T05:20:46.158Z,2456.00
2022-08-24T05:21:46.291Z,2576.00
2022-08-24T05:22:46.491Z,2592.00
2022-08-24T05:23:46.698Z,2792.00
2022-08-24T05:24:46.801Z,2704.00
2022-08-24T05:25:46.993Z,2628.00
2022-08-24T05:26:47.257Z,2600.00
2022-08-24T05:27:47.362Z,2800.00
2022-08-24T05:28:47.568Z,3136.00
2022-08-24T05:29:47.672Z,3424.00
2022-08-24T05:30:47.822Z,3464.00
2022-08-24T05:31:48.092Z,3368.00
2022-08-24T05:32:48.163Z,3416.00
2022-08-24T05:33:48.340Z,3504.00
2022-08-24T05:34:48.606Z,3572.00
2022-08-24T05:35:48.702Z,3756.00
2022-08-24T05:36:48.892Z,3976.00
2022-08-24T05:37:49.204Z,3900.00
2022-08-24T05:38:49.255Z,3988.00
2022-08-24T05:39:49.467Z,4008.00
2022-08-24T05:40:49.703Z,3952.00
2022-08-24T05:41:49.822Z,4080.00
2022-08-24T05:42:49.974Z,4220.00
2022-08-24T05:43:50.157Z,4340.00
2022-08-24T05:44:50.310Z,4560.00
2022-08-24T05:45:50.550Z,4768.00
2022-08-24T05:46:50.743Z,4720.00
2022-08-24T05:47:50.950Z,4728.00
2022-08-24T05:48:52.951Z,4700.00
2022-08-24T05:49:51.165Z,4556.00
2022-08-24T05:50:51.376Z,4224.00
2022-08-24T05:51:51.552Z,3844.00
2022-08-24T05:52:51.705Z,3668.00
2022-08-24T05:53:51.876Z,3548.00
2022-08-24T05:54:52.084Z,3504.00
2022-08-24T05:55:52.229Z,3572.00
2022-08-24T05:56:52.415Z,3812.00
2022-08-24T05:57:52.718Z,3984.00
2022-08-24T05:58:52.753Z,4076.00
2022-08-24T05:59:52.925Z,4204.00
2022-08-24T06:00:53.195Z,4160.00
2022-08-24T06:01:53.466Z,4212.00
2022-08-24T06:02:53.721Z,4268.00
2022-08-24T06:03:53.645Z,4500.00
2022-08-24T06:04:53.793Z,4864.00
2022-08-24T06:05:54.023Z,5068.00
2022-08-24T06:06:54.151Z,5108.00
2022-08-24T06:07:54.816Z,5104.00
2022-08-24T06:08:54.546Z,5116.00
2022-08-24T06:09:54.674Z,5120.00
2022-08-24T06:10:54.948Z,5144.00
2022-08-24T06:11:55.072Z,5124.00
2022-08-24T06:12:55.226Z,5128.00
2022-08-24T06:13:56.274Z,5052.00
2022-08-24T06:14:55.589Z,5120.00
2022-08-24T06:16:19.899Z,5224.00
2022-08-24T06:16:56.993Z,5428.00
2022-08-24T06:17:56.249Z,5512.00
2022-08-24T06:18:56.291Z,5788.00
2022-08-24T06:19:56.451Z,6072.00
2022-08-24T06:20:57.237Z,6148.00
2022-08-24T06:21:56.797Z,5984.00
2022-08-24T06:22:56.967Z,5712.00
2022-08-24T06:23:57.187Z,5688.00
2022-08-24T06:24:58.964Z,5796.00
2022-08-24T06:25:57.450Z,5980.00
2022-08-24T06:26:57.665Z,6292.00
2022-08-24T06:27:57.791Z,6596.00
2022-08-24T06:28:57.930Z,6692.00
2022-08-24T06:29:58.191Z,6680.00
2022-08-24T06:30:58.368Z,6876.00
2022-08-24T06:31:58.538Z,6868.00
2022-08-24T06:32:58.728Z,6712.00
2022-08-24T06:33:58.838Z,6648.00
2022-08-24T06:34:59.028Z,6900.00
2022-08-24T06:35:59.213Z,6892.00
2022-08-24T06:36:59.347Z,6788.00
2022-08-24T06:37:59.552Z,7012.00
2022-08-24T06:38:59.805Z,7228.00
2022-08-24T06:40:00.046Z,7280.00
2022-08-24T06:41:00.061Z,7236.00
2022-08-24T06:42:00.332Z,7376.00
2022-08-24T06:43:00.440Z,7400.00
2022-08-24T06:44:00.600Z,7364.00
2022-08-24T06:45:00.822Z,7412.00
2022-08-24T06:46:00.973Z,7784.00
2022-08-24T06:47:01.172Z,7872.00
2022-08-24T06:48:01.383Z,8132.00
2022-08-24T06:49:01.488Z,7908.00
2022-08-24T06:50:01.650Z,7952.00
2022-08-24T06:51:01.867Z,8096.00
2022-08-24T06:52:02.011Z,7224.00
2022-08-24T06:53:02.198Z,6420.00
2022-08-24T06:54:02.372Z,6140.00
2022-08-24T06:55:02.569Z,5896.00
2022-08-24T06:56:02.691Z,5460.00
2022-08-24T06:57:02.849Z,5236.00
2022-08-24T06:58:03.116Z,5180.00
2022-08-24T06:59:03.220Z,5060.00
2022-08-24T07:00:03.391Z,4880.00
2022-08-24T07:01:03.589Z,4728.00
2022-08-24T07:02:03.781Z,4460.00
2022-08-24T07:03:04.090Z,4236.00
2022-08-24T07:04:04.133Z,4252.00
2022-08-24T07:05:04.246Z,4336.00
2022-08-24T07:06:04.433Z,4412.00
2022-08-24T07:07:04.645Z,4552.00
2022-08-24T07:08:04.822Z,4464.00
2022-08-24T07:09:04.963Z,4416.00
2022-08-24T07:10:05.204Z,4356.00
2022-08-24T07:11:05.377Z,4260.00
2022-08-24T07:12:05.512Z,4144.00
2022-08-24T07:13:05.886Z,4136.00
2022-08-24T07:14:05.927Z,4216.00
2022-08-24T07:15:16.194Z,4428.00
2022-08-24T07:16:07.265Z,4688.00
2022-08-24T07:17:06.462Z,4908.00
2022-08-24T07:18:06.564Z,5240.00
2022-08-24T07:19:06.716Z,5580.00
2022-08-24T07:20:06.954Z,5680.00
2022-08-24T07:21:07.099Z,5468.00
2022-08-24T07:22:07.265Z,5116.00
2022-08-24T07:23:07.502Z,5004.00
2022-08-24T07:24:07.633Z,4924.00
2022-08-24T07:25:07.765Z,4928.00
2022-08-24T07:26:07.985Z,4908.00
2022-08-24T07:27:08.198Z,4924.00
2022-08-24T07:28:10.202Z,4972.00
2022-08-24T07:29:20.666Z,4980.00
2022-08-24T07:30:26.410Z,5012.00
2022-08-24T07:31:09.871Z,5252.00
2022-08-24T07:32:09.024Z,5416.00
2022-08-24T07:33:09.247Z,5368.00
2022-08-24T07:34:09.358Z,5336.00
2022-08-24T07:35:09.537Z,5408.00
2022-08-24T07:36:09.726Z,5696.00
2022-08-24T07:37:09.919Z,6012.00
2022-08-24T07:38:10.106Z,6312.00
2022-08-24T07:39:10.320Z,6412.00
2022-08-24T07:40:10.549Z,6220.00
2022-08-24T07:41:36.496Z,6084.00
2022-08-24T07:42:14.095Z,5900.00
2022-08-24T07:43:11.008Z,5788.00
2022-08-24T07:44:11.250Z,5980.00
2022-08-24T07:45:11.355Z,6416.00
2022-08-24T07:46:11.580Z,6668.00
2022-08-24T07:47:36.631Z,6640.00
2022-08-24T07:48:14.313Z,6560.00
2022-08-24T07:49:29.365Z,6116.00
2022-08-24T07:50:13.252Z,5828.00
2022-08-24T07:51:12.399Z,5708.00
2022-08-24T07:52:12.599Z,5952.00
2022-08-24T07:53:16.293Z,6412.00
2022-08-24T07:54:13.964Z,7080.00
2022-08-24T07:55:13.146Z,7704.00
2022-08-24T07:56:13.319Z,7604.00
2022-08-24T07:57:13.509Z,7188.00
2022-08-24T07:58:13.688Z,6976.00
2022-08-24T07:59:13.829Z,6876.00
2022-08-24T08:00:13.989Z,7112.00
2022-08-24T08:01:14.271Z,7524.00
2022-08-24T08:02:14.376Z,7692.00
2022-08-24T08:03:14.556Z,7352.00
2022-08-24T08:04:14.704Z,7104.00
2022-08-24T08:05:14.843Z,7100.00
2022-08-24T08:06:16.456Z,7596.00
2022-08-24T08:07:15.188Z,8120.00
2022-08-24T08:08:15.340Z,8384.00
2022-08-24T08:09:15.500Z,8644.00
2022-08-24T08:10:15.766Z,8472.00
2022-08-24T08:11:15.871Z,8556.00
2022-08-24T08:12:16.069Z,8620.00
2022-08-24T08:13:16.210Z,8604.00
2022-08-24T08:14:16.410Z,8600.00
2022-08-24T08:15:16.583Z,8616.00
2022-08-24T08:16:16.772Z,8816.00
2022-08-24T08:17:16.941Z,8812.00
2022-08-24T08:18:17.243Z,8972.00
2022-08-24T08:19:17.292Z,9652.00
2022-08-24T08:20:18.786Z,10324.00
2022-08-24T08:21:17.662Z,10568.00
2022-08-24T08:22:17.852Z,10124.00
2022-08-24T08:23:18.029Z,9828.00
2022-08-24T08:24:20.457Z,10396.00
2022-08-24T08:25:18.352Z,10772.00
2022-08-24T08:26:18.576Z,10576.00
2022-08-24T08:27:18.717Z,9856.00
2022-08-24T08:28:25.811Z,9248.00
2022-08-24T08:29:20.104Z,9004.00
2022-08-24T08:30:19.268Z,9100.00
2022-08-24T08:31:19.455Z,9556.00
2022-08-24T08:32:19.680Z,9864.00
2022-08-24T08:33:19.828Z,9680.00
2022-08-24T08:34:19.933Z,9884.00
2022-08-24T08:35:20.109Z,10688.00
2022-08-24T08:36:20.328Z,12184.00
2022-08-24T08:37:20.447Z,14740.00
2022-08-24T08:38:20.595Z,17952.00
2022-08-24T08:39:20.879Z,16884.00
2022-08-24T08:40:21.054Z,15424.00
2022-08-24T08:41:25.916Z,15096.00
2022-08-24T08:42:22.327Z,14868.00
2022-08-24T08:43:21.474Z,14672.00
2022-08-24T08:44:21.637Z,13904.00
2022-08-24T08:45:21.814Z,12760.00
2022-08-24T08:46:22.098Z,12212.00
2022-08-24T08:47:22.185Z,12504.00
2022-08-24T08:48:22.356Z,12764.00
2022-08-24T08:49:22.601Z,12708.00
2022-08-24T08:50:22.726Z,13952.00
2022-08-24T08:51:22.896Z,15492.00
2022-08-24T08:52:23.178Z,17824.00
2022-08-24T08:53:23.256Z,18400.00
2022-08-24T08:54:23.407Z,17600.00
2022-08-24T08:55:23.596Z,16648.00
2022-08-24T08:56:24.780Z,17952.00
2022-08-24T08:57:24.053Z,21536.00
2022-08-24T08:58:24.547Z,21664.00
2022-08-24T08:59:24.278Z,22944.00
2022-08-24T09:00:24.537Z,29120.00
2022-08-24T09:01:24.649Z,25952.00
2022-08-24T09:02:24.771Z,28960.00
2022-08-24T09:03:24.939Z,27392.00
2022-08-24T09:04:25.196Z,23808.00
2022-08-24T09:05:25.259Z,24672.00
2022-08-24T09:06:25.542Z,26688.00
2022-08-24T09:07:25.651Z,26272.00
2022-08-24T09:08:25.799Z,27872.00
2022-08-24T09:09:26.055Z,30560.00
2022-08-24T09:10:26.176Z,33664.00
2022-08-24T09:11:26.319Z,28192.00
2022-08-24T09:12:26.554Z,38208.00
2022-08-24T09:13:26.671Z,26656.00
2022-08-24T09:14:26.897Z,64256.00
2022-08-24T09:15:27.038Z,39648.00
2022-08-24T09:16:27.234Z,34784.00
2022-08-24T09:17:27.461Z,31328.00
2022-08-24T09:18:27.549Z,21856.00
2022-08-24T09:19:31.708Z,22368.00
2022-08-24T09:20:27.863Z,27008.00
2022-08-24T09:21:28.055Z,19296.00
2022-08-24T09:22:28.183Z,20064.00
2022-08-24T09:23:28.364Z,23200.00
2022-08-24T09:24:28.534Z,22112.00
2022-08-24T09:25:28.724Z,17824.00
2022-08-24T09:26:28.911Z,16396.00
2022-08-24T09:27:29.074Z,16028.00
2022-08-24T09:28:29.299Z,17760.00
2022-08-24T09:29:29.426Z,16164.00
2022-08-24T09:30:29.636Z,15604.00
2022-08-24T09:31:29.903Z,13804.00
2022-08-24T09:32:29.926Z,14892.00
2022-08-24T09:33:30.115Z,16728.00
2022-08-24T09:34:30.377Z,14328.00
2022-08-24T09:35:30.466Z,14528.00
2022-08-24T09:36:30.748Z,15280.00
2022-08-24T09:37:30.807Z,14956.00
2022-08-24T09:38:30.978Z,14860.00
2022-08-24T09:39:31.166Z,15652.00
2022-08-24T09:40:31.452Z,16744.00
2022-08-24T09:41:31.646Z,16404.00
2022-08-24T09:42:31.708Z,17376.00
2022-08-24T09:43:31.888Z,15964.00
2022-08-24T09:44:32.174Z,17216.00
2022-08-24T09:45:32.264Z,15964.00
2022-08-24T09:46:32.551Z,18208.00
2022-08-24T09:47:32.598Z,17408.00
2022-08-24T09:48:32.778Z,16400.00
2022-08-24T09:49:33.060Z,15664.00
2022-08-24T09:50:33.140Z,16068.00
2022-08-24T09:51:33.340Z,15316.00
2022-08-24T09:52:33.600Z,15076.00
2022-08-24T09:53:33.703Z,14744.00
2022-08-24T09:54:33.880Z,15408.00
2022-08-24T09:55:34.180Z,17632.00
2022-08-24T09:56:34.253Z,15432.00
2022-08-24T09:57:59.510Z,15920.00
2022-08-24T09:58:35.623Z,16884.00
2022-08-24T09:59:34.801Z,18176.00
2022-08-24T10:00:34.960Z,16452.00
2022-08-24T10:01:35.195Z,15456.00
2022-08-24T10:02:35.365Z,14372.00
2022-08-24T10:03:38.529Z,14152.00
2022-08-24T10:04:35.829Z,14996.00
2022-08-24T10:05:36.898Z,15948.00
2022-08-24T10:06:35.982Z,17504.00
2022-08-24T10:07:36.182Z,19744.00
2022-08-24T10:08:36.392Z,17216.00
2022-08-24T10:09:36.494Z,16528.00
2022-08-24T10:10:36.686Z,19680.00
2022-08-24T10:11:36.943Z,18144.00
2022-08-24T10:12:37.034Z,19872.00
2022-08-24T10:13:37.294Z,21152.00
2022-08-24T10:14:37.392Z,23264.00
2022-08-24T10:15:37.604Z,26016.00
2022-08-24T10:16:37.902Z,22432.00
2022-08-24T10:17:37.935Z,22624.00
2022-08-24T10:18:38.114Z,20800.00
2022-08-24T10:19:38.379Z,20160.00
2022-08-24T10:20:38.498Z,19872.00
2022-08-24T10:21:38.639Z,16112.00
2022-08-24T10:22:38.904Z,17504.00
2022-08-24T10:23:39.023Z,19392.00
2022-08-24T10:24:39.156Z,19232.00
2022-08-24T10:25:39.427Z,20928.00
2022-08-24T10:26:39.545Z,21280.00
2022-08-24T10:27:39.702Z,20000.00
2022-08-24T10:28:39.884Z,18112.00
2022-08-24T10:29:40.107Z,17312.00
2022-08-24T10:30:40.266Z,15736.00
2022-08-24T10:31:40.420Z,15100.00
2022-08-24T10:32:40.581Z,13848.00
2022-08-24T10:33:40.726Z,13256.00
2022-08-24T10:34:40.944Z,13392.00
2022-08-24T10:35:41.098Z,13960.00
2022-08-24T10:36:41.258Z,14312.00
2022-08-24T10:37:42.285Z,14716.00
2022-08-24T10:38:41.596Z,14996.00
2022-08-24T10:39:41.800Z,15836.00
2022-08-24T10:40:42.087Z,16816.00
2022-08-24T10:41:42.152Z,16736.00
2022-08-24T10:42:42.289Z,17376.00
2022-08-24T10:43:42.555Z,17536.00
2022-08-24T10:44:42.680Z,15984.00
2022-08-24T10:45:42.845Z,13844.00
2022-08-24T10:46:44.069Z,11236.00
2022-08-24T10:47:43.182Z,9336.00
2022-08-24T10:48:43.351Z,7984.00
2022-08-24T10:49:43.657Z,7756.00
2022-08-24T10:50:43.718Z,7580.00
2022-08-24T10:51:43.892Z,7432.00
2022-08-24T10:52:44.106Z,7548.00
2022-08-24T10:53:44.323Z,7840.00
2022-08-24T10:54:44.423Z,8092.00
2022-08-24T10:55:44.622Z,8748.00
2022-08-24T10:56:44.836Z,9220.00
2022-08-24T10:57:44.969Z,9784.00
2022-08-24T10:58:45.147Z,8632.00
2022-08-24T10:59:45.338Z,9064.00
2022-08-24T11:00:45.535Z,9776.00
2022-08-24T11:01:45.782Z,9492.00
2022-08-24T11:02:45.876Z,10076.00
2022-08-24T11:03:46.000Z,11272.00
2022-08-24T11:04:46.284Z,11684.00
2022-08-24T11:05:46.371Z,12252.00
2022-08-24T11:06:46.514Z,12240.00
2022-08-24T11:07:46.753Z,11348.00
2022-08-24T11:08:46.896Z,10620.00
2022-08-24T11:09:47.091Z,10020.00
2022-08-24T11:10:47.283Z,10300.00
2022-08-24T11:11:47.487Z,10452.00
2022-08-24T11:12:47.615Z,9940.00
2022-08-24T11:13:47.786Z,8784.00
2022-08-24T11:14:48.054Z,8012.00
2022-08-24T11:15:48.153Z,7752.00
2022-08-24T11:16:48.349Z,7644.00
2022-08-24T11:17:48.580Z,7456.00
2022-08-24T11:18:48.715Z,7284.00
2022-08-24T11:19:48.879Z,7180.00
2022-08-24T11:20:49.146Z,6952.00
2022-08-24T11:21:49.206Z,6748.00
2022-08-24T11:22:49.666Z,6712.00
2022-08-24T11:23:49.648Z,6804.00
2022-08-24T11:24:49.785Z,6932.00
2022-08-24T11:25:49.980Z,6996.00
2022-08-24T11:26:53.587Z,6920.00
2022-08-24T11:27:50.287Z,6776.00
2022-08-24T11:28:50.439Z,6684.00
2022-08-24T11:29:50.662Z,6600.00
2022-08-24T11:30:50.840Z,6412.00
2022-08-24T11:31:51.027Z,6332.00
2022-08-24T11:32:51.131Z,6288.00
2022-08-24T11:33:52.316Z,6380.00
2022-08-24T11:34:51.484Z,6496.00
2022-08-24T11:35:51.641Z,6492.00
2022-08-24T11:36:51.779Z,6344.00
2022-08-24T11:37:52.030Z,6376.00
2022-08-24T11:38:52.113Z,6480.00
2022-08-24T11:39:52.346Z,6504.00
2022-08-24T11:40:52.532Z,6552.00
2022-08-24T11:41:52.653Z,6580.00
2022-08-24T11:42:52.813Z,6580.00
2022-08-24T11:43:53.031Z,6532.00
2022-08-24T11:44:53.180Z,6636.00
2022-08-24T11:45:53.323Z,6820.00
2022-08-24T11:46:53.641Z,6832.00
2022-08-24T11:47:53.677Z,6668.00
2022-08-24T11:48:53.860Z,6496.00
2022-08-24T11:49:54.153Z,6660.00
2022-08-24T11:50:54.213Z,6732.00
2022-08-24T11:51:54.481Z,6624.00
2022-08-24T11:52:54.558Z,6584.00
2022-08-24T11:53:54.744Z,6640.00
2022-08-24T11:54:54.946Z,6676.00
2022-08-24T11:55:57.480Z,6848.00
2022-08-24T11:56:56.234Z,7032.00
2022-08-24T11:57:55.425Z,7156.00
2022-08-24T11:58:55.657Z,7208.00
2022-08-24T11:59:55.785Z,6948.00
2022-08-24T12:00:55.967Z,6760.00
2022-08-24T12:01:56.375Z,6188.00
2022-08-24T12:02:56.400Z,5784.00
2022-08-24T12:03:56.528Z,5696.00
2022-08-24T12:04:56.666Z,5568.00
2022-08-24T12:05:56.856Z,5488.00
2022-08-24T12:06:57.097Z,5444.00
2022-08-24T12:07:57.207Z,5480.00
2022-08-24T12:08:57.395Z,5516.00
2022-08-24T12:09:57.649Z,5540.00
2022-08-24T12:10:57.728Z,5564.00
2022-08-24T12:11:57.910Z,5656.00
2022-08-24T12:12:58.170Z,5812.00
2022-08-24T12:13:58.278Z,5964.00
2022-08-24T12:14:58.438Z,6040.00
2022-08-24T12:15:58.694Z,6136.00
2022-08-24T12:16:58.810Z,6248.00
2022-08-24T12:17:59.058Z,6380.00
2022-08-24T12:18:59.287Z,6440.00
2022-08-24T12:19:59.356Z,6404.00
2022-08-24T12:20:59.549Z,6188.00
2022-08-24T12:21:59.779Z,6072.00
2022-08-24T12:22:59.870Z,5948.00
2022-08-24T12:24:00.142Z,5944.00
2022-08-24T12:25:00.228Z,5716.00
2022-08-24T12:26:00.409Z,5480.00